Aérodrome :
LOGIN :

S'inscrire | Disclaimer

   EN    FR    IT 

 










Légende :    VFR   VFR Marginal   IFR   IFR Intensif   IFR Très Intensif
Visi : 
Plafond : 
>= 8 km
>= 3000ft
5 à 8 km
1000 à 3000 ft
1500m à 5 km
500 à 1000 ft
800 à 1500m
200 à 500 ft
< 800m
< 200 ft
Symboles :   Orages  Brouillard  Fortes neiges  Fortes précipitations  Vent > 20 kt
SIGMETs :   Divers  Orages  Givrage  Turbulence  Onde Orograph.  Cendres Volcan.







- Altitude de l'aérodrome : 499 ft
- Code IATA : TLS
- Voir les cartes d'approche


LFBO - Toulouse / Blagnac

DERNIER METAR :
  • 122130Z AUTO 13014KT 9999 BKN018 OVC028 17/14 Q1019 TEMPO 4000 -DZRA BKN006 BECMG 33010KT

METARs EXPIRÉS :
  • 122100Z AUTO 12010KT 9999 BKN018 BKN028 OVC037 17/14 Q1019 BECMG 33010KT
  • 122030Z AUTO 14008KT 100V170 9999 BKN019 BKN029 OVC037 17/14 Q1019 BECMG 33010KT
  • 122000Z AUTO 13011KT 9999 BKN020 OVC041 17/14 Q1019 BECMG 33010KT
  • 121930Z AUTO 13011KT 070V140 9999 BKN021 BKN029 OVC042 18/13 Q1018 BECMG 33010KT
  • 121900Z AUTO 12009KT 090V170 9999 BKN022 BKN027 OVC039 18/13 Q1018 NOSIG

TAF TAF LFBO
Valide du 12 à 18h jusqu'au 14 à 00h UTC


121700Z 1218/1324 14010KT 9999 BKN030
PROB40 1218/1223 BKN016
BECMG 1221/1223 33010KT
PROB40
TEMPO 1223/1303 4000 -DZRA BKN006
BECMG 1303/1305 SCT008 BKN025
BECMG 1310/1312 03005KT SCT020
BECMG 1321/1324 14010KT BKN010
ATIS : +33 5 62 74 66 36
Pas de NOTAMs connus pour ce terrain.



MET'MAP, la Météo Aéronautique d'un coup d'oeil ! - Copyright ORBIFLY Décembre 2007 - Disclaimer

ORBIFLY MET'MAP TEAM :

Programmation & Développement : Alexandra Zaïnal
Conception & Développement : Baudouin d'Aumeries
Co-Programmation & Développement : Marc-Olivier Méhu
Soutien technique & logistique : Manuel Goepfert

Contact : metmap@orbifly.com




SOURCES & CREDITS :

   NOAA